Time;durP1;ratioP1;P1;durP2;ratioP2;P2;SDS_P1;SDS_P2;PMS_P1;PMS_P2;Temp;Humidity;BMP_temperature;BMP_pressure;BME280_temperature;BME280_humidity;BME280_pressure;Samples;Min_cycle;Max_cycle;Signal;HPM_P1;HPM_P2
2021/05/18 00:00:30;;;;;;;1.52;0.70;;;;;;;12.66;73.53;93968.41;2971078;39;20348;-82
2021/05/18 00:02:43;;;;;;;2.58;0.80;;;;;;;12.63;73.63;93968.00;2967789;40;20133;-81
2021/05/18 00:04:45;;;;;;;1.65;1.25;;;;;;;12.69;74.05;93959.34;2975029;39;20064;-81
2021/05/18 00:06:48;;;;;;;2.42;0.85;;;;;;;12.75;73.89;93957.78;2976561;39;20566;-83
2021/05/18 00:13:30;;;;;;;1.02;0.60;;;;;;;12.79;74.03;93972.16;2969874;40;20421;-81
2021/05/18 00:15:33;;;;;;;1.05;0.80;;;;;;;12.79;73.54;93977.41;2970083;39;20356;-80
2021/05/18 00:17:34;;;;;;;1.30;0.60;;;;;;;12.76;73.93;93977.81;2973538;39;20068;-80
2021/05/18 00:19:36;;;;;;;1.95;0.80;;;;;;;12.78;74.21;93981.06;2973480;39;20047;-81
2021/05/18 00:21:38;;;;;;;4.70;0.90;;;;;;;12.73;74.17;93992.13;2970113;40;20076;-83
2021/05/18 00:23:40;;;;;;;1.85;0.73;;;;;;;12.77;74.23;93989.94;2974120;40;20096;-80
2021/05/18 00:25:42;;;;;;;0.90;0.60;;;;;;;12.72;73.99;93987.06;2970540;39;20169;-82
2021/05/18 00:27:44;;;;;;;2.47;0.65;;;;;;;12.82;73.58;93995.44;2970463;39;20119;-70
2021/05/18 00:29:45;;;;;;;1.88;0.85;;;;;;;12.73;74.06;93993.94;2969895;39;20162;-69
2021/05/18 00:31:47;;;;;;;1.67;0.98;;;;;;;12.76;73.68;94001.47;2966822;40;20096;-69
2021/05/18 00:33:49;;;;;;;1.55;1.00;;;;;;;12.72;74.34;94001.03;2969598;39;20381;-70
2021/05/18 00:35:51;;;;;;;0.90;0.70;;;;;;;12.79;74.29;94004.50;2966753;40;20071;-70
2021/05/18 00:37:54;;;;;;;1.83;0.75;;;;;;;12.80;74.33;94010.56;2972667;39;20052;-69
2021/05/18 00:39:56;;;;;;;1.52;0.98;;;;;;;12.76;74.15;94004.91;2975826;39;20110;-70
2021/05/18 00:41:58;;;;;;;2.10;1.30;;;;;;;12.85;74.51;94003.75;2971474;39;20063;-69
2021/05/18 00:44:00;;;;;;;1.40;0.70;;;;;;;12.92;74.08;94006.44;2972312;39;20388;-68
2021/05/18 00:46:02;;;;;;;2.03;0.75;;;;;;;12.84;74.05;94012.66;2966342;39;20448;-69
2021/05/18 00:48:06;;;;;;;1.85;0.80;;;;;;;12.87;74.08;94032.50;2972650;39;20063;-70
2021/05/18 00:50:08;;;;;;;1.10;0.88;;;;;;;12.91;74.11;94039.00;2971529;39;20414;-69
2021/05/18 00:52:11;;;;;;;2.30;1.30;;;;;;;12.86;74.62;94051.88;3740818;22;20044;-70
2021/05/18 00:54:25;;;;;;;2.97;0.85;;;;;;;12.87;75.05;94049.06;2952020;40;20111;-69
2021/05/18 00:58:41;;;;;;;3.00;1.27;;;;;;;12.85;75.32;94061.59;2959613;40;20104;-70
2021/05/18 01:00:43;;;;;;;1.40;0.90;;;;;;;12.86;75.49;94041.38;2966188;40;20164;-70
2021/05/18 01:02:47;;;;;;;2.97;1.00;;;;;;;12.90;75.45;94037.34;2964726;40;20055;-70
2021/05/18 01:04:55;;;;;;;2.90;1.73;;;;;;;12.92;75.73;93998.53;2961606;40;20080;-69
2021/05/18 01:06:57;;;;;;;2.30;1.23;;;;;;;12.96;75.86;93978.75;2961239;40;20100;-69
2021/05/18 01:09:10;;;;;;;3.13;1.35;;;;;;;13.03;76.24;93999.84;2963802;40;20456;-70
2021/05/18 01:11:14;;;;;;;1.77;1.20;;;;;;;13.08;75.62;93987.75;2963107;40;20429;-70
2021/05/18 01:13:16;;;;;;;5.20;1.83;;;;;;;13.13;75.93;93999.53;2958149;40;20050;-69
2021/05/18 01:15:17;;;;;;;1.77;1.20;;;;;;;13.00;75.92;94016.81;2952226;40;20069;-69
2021/05/18 01:17:19;;;;;;;1.88;1.20;;;;;;;12.67;76.90;94027.06;2966526;40;20064;-69
2021/05/18 01:19:26;;;;;;;1.52;1.17;;;;;;;12.42;77.81;94032.66;2967322;40;20056;-71
2021/05/18 01:21:28;;;;;;;2.65;1.30;;;;;;;12.20;78.78;94025.78;2963026;40;20105;-70
2021/05/18 01:23:30;;;;;;;2.42;1.30;;;;;;;12.07;79.15;94029.88;2960538;40;20462;-71
2021/05/18 01:25:32;;;;;;;3.55;1.50;;;;;;;11.95;79.27;94036.59;2963648;40;20428;-69
2021/05/18 01:27:33;;;;;;;2.22;1.60;;;;;;;11.96;79.63;94034.78;2961151;40;20087;-70
2021/05/18 01:29:35;;;;;;;3.13;1.70;;;;;;;11.77;79.83;94039.56;2959989;40;20057;-70
2021/05/18 01:31:46;;;;;;;2.55;1.65;;;;;;;11.72;80.88;94034.03;2962372;40;20133;-69
2021/05/18 01:33:49;;;;;;;8.18;2.67;;;;;;;11.94;80.33;94034.97;2955150;40;20099;-70
2021/05/18 01:35:53;;;;;;;2.70;1.50;;;;;;;12.14;79.35;94037.81;2960627;40;20088;-69
2021/05/18 01:37:55;;;;;;;;;;;;;;;12.31;78.56;94040.25;2958618;40;20083;-69
2021/05/18 01:40:07;;;;;;;2.35;1.40;;;;;;;12.39;76.75;94045.34;2962796;40;19971;-69
2021/05/18 01:44:37;;;;;;;2.00;1.15;;;;;;;12.41;74.80;94043.34;2950358;40;20179;-69
2021/05/18 01:46:39;;;;;;;3.67;1.50;;;;;;;12.47;74.64;94035.53;2958030;40;20062;-70
2021/05/18 01:48:47;;;;;;;2.00;1.25;;;;;;;12.54;74.28;94038.25;2957733;40;20114;-69
2021/05/18 01:50:50;;;;;;;1.40;1.10;;;;;;;12.63;73.79;94060.78;2962298;40;20052;-70
2021/05/18 01:52:52;;;;;;;2.47;0.95;;;;;;;12.67;73.10;94062.03;2957587;40;20149;-69
2021/05/18 01:54:54;;;;;;;1.88;1.10;;;;;;;12.69;73.01;94067.09;2959422;40;20049;-69
2021/05/18 01:59:05;;;;;;;2.45;1.10;;;;;;;12.72;72.46;94069.34;2958889;40;20365;-68
2021/05/18 02:01:07;;;;;;;2.45;1.20;;;;;;;12.74;72.25;94059.47;2957870;40;20137;-69
2021/05/18 02:03:09;;;;;;;1.30;0.90;;;;;;;12.77;72.35;94051.19;2958607;40;20061;-68
2021/05/18 02:05:13;;;;;;;2.97;1.00;;;;;;;12.79;72.03;94053.63;2958785;40;20063;-70
2021/05/18 02:07:20;;;;;;;2.35;1.23;;;;;;;12.82;71.70;94061.13;2959538;40;20070;-69
2021/05/18 02:09:22;;;;;;;3.90;1.45;;;;;;;12.86;71.80;94068.47;2960322;40;20363;-68
2021/05/18 02:11:24;;;;;;;5.00;1.45;;;;;;;12.89;71.79;94075.19;2963469;40;20155;-69
2021/05/18 02:13:26;;;;;;;4.85;1.20;;;;;;;12.88;72.03;94076.16;2957944;40;20452;-68
2021/05/18 02:15:54;;;;;;;2.75;1.17;;;;;;;12.89;72.06;94083.06;2957849;40;20104;-69
2021/05/18 02:20:38;;;;;;;1.83;1.20;;;;;;;12.86;72.10;94083.41;2961445;40;20062;-68
2021/05/18 02:25:05;;;;;;;1.73;1.17;;;;;;;12.74;72.28;94104.16;2959012;40;20314;-69
2021/05/18 02:27:07;;;;;;;3.17;1.15;;;;;;;12.75;72.34;94112.84;2966229;40;20056;-70
2021/05/18 02:29:09;;;;;;;7.80;1.58;;;;;;;12.72;71.97;94113.22;2961516;40;20049;-69
2021/05/18 02:31:11;;;;;;;2.30;1.60;;;;;;;12.60;72.88;94120.75;2957223;40;20045;-69
2021/05/18 02:33:12;;;;;;;2.00;1.40;;;;;;;12.34;74.88;94126.53;2957507;40;20049;-69
2021/05/18 02:35:15;;;;;;;4.53;1.50;;;;;;;12.11;76.42;94119.59;2965255;40;20045;-70
2021/05/18 02:37:17;;;;;;;2.33;1.48;;;;;;;12.25;75.21;94116.13;2964412;40;20084;-69
2021/05/18 02:39:19;;;;;;;3.08;1.75;;;;;;;12.40;74.84;94120.53;2959378;40;20188;-68
2021/05/18 02:41:21;;;;;;;2.88;1.38;;;;;;;12.51;74.42;94127.94;2960048;40;20318;-70
2021/05/18 02:43:31;;;;;;;2.10;1.60;;;;;;;12.65;73.62;94136.81;2959369;40;20149;-69
2021/05/18 02:46:04;;;;;;;5.75;1.80;;;;;;;12.68;73.19;94129.34;2958140;40;20254;-70
2021/05/18 02:50:16;;;;;;;2.70;2.25;;;;;;;12.73;73.63;94149.81;2958720;40;20075;-69
2021/05/18 02:52:19;;;;;;;3.58;2.38;;;;;;;12.70;73.35;94144.94;2956300;40;20104;-69
2021/05/18 02:54:26;;;;;;;2.78;2.20;;;;;;;12.63;73.58;94147.50;2957088;40;20180;-69
2021/05/18 02:56:41;;;;;;;2.95;2.17;;;;;;;12.70;73.77;94142.31;2957603;40;20080;-69
2021/05/18 02:58:54;;;;;;;3.55;2.63;;;;;;;12.68;73.73;94146.94;2959743;40;20060;-70
2021/05/18 03:00:56;;;;;;;4.53;2.90;;;;;;;12.68;73.50;94129.34;2957217;40;20124;-68
2021/05/18 03:02:58;;;;;;;4.30;3.20;;;;;;;12.68;73.24;94137.22;2958122;40;20053;-69
2021/05/18 03:04:59;;;;;;;5.15;2.80;;;;;;;12.68;73.14;94139.06;4132187;22;20048;-81
2021/05/18 03:07:01;;;;;;;3.65;3.13;;;;;;;12.66;72.85;94131.34;2956334;40;20142;-81
2021/05/18 03:09:09;;;;;;;4.22;3.10;;;;;;;12.68;73.21;94129.34;2958192;40;20048;-82
2021/05/18 03:11:12;;;;;;;4.40;3.67;;;;;;;12.74;73.21;94140.13;2950156;40;20469;-81
2021/05/18 03:13:14;;;;;;;3.50;3.13;;;;;;;12.80;72.82;94137.56;2958437;40;20114;-82
2021/05/18 03:15:16;;;;;;;6.05;3.50;;;;;;;12.88;72.73;94144.50;2958785;40;20050;-82
2021/05/18 03:17:18;;;;;;;4.53;4.00;;;;;;;12.89;72.80;94138.25;2957908;40;20064;-81
2021/05/18 03:19:21;;;;;;;4.18;3.78;;;;;;;12.91;72.75;94134.44;2959618;40;20049;-82
2021/05/18 03:21:23;;;;;;;3.80;3.40;;;;;;;12.96;72.16;94135.69;2958682;40;20472;-82
2021/05/18 03:23:25;;;;;;;4.53;3.47;;;;;;;12.95;71.69;94128.81;2959642;40;20053;-82
2021/05/18 03:25:27;;;;;;;3.90;3.40;;;;;;;12.91;72.37;94139.69;2960627;40;20065;-81
2021/05/18 03:27:29;;;;;;;4.30;3.63;;;;;;;12.94;72.04;94130.63;2960270;40;20077;-81
2021/05/18 03:29:32;;;;;;;3.60;3.20;;;;;;;12.95;71.82;94128.81;2960605;40;20068;-79
2021/05/18 03:36:14;;;;;;;5.97;3.88;;;;;;;12.88;71.94;94134.84;2962374;40;20068;-81
2021/05/18 03:38:27;;;;;;;5.25;3.72;;;;;;;12.94;71.98;94124.56;2962142;40;20147;-82
2021/05/18 03:40:30;;;;;;;3.92;3.53;;;;;;;12.97;72.13;94138.16;2963137;40;20061;-81
2021/05/18 03:42:36;;;;;;;4.55;4.07;;;;;;;12.94;72.04;94146.41;2959832;40;20285;-83
2021/05/18 03:44:51;;;;;;;4.47;3.83;;;;;;;12.95;71.42;94139.31;2963367;40;20071;-82
2021/05/18 03:53:44;;;;;;;3.92;3.53;;;;;;;12.91;71.04;94147.59;2961987;40;20088;-80
2021/05/18 04:04:54;;;;;;;3.25;2.40;;;;;;;13.01;68.87;94157.78;2955840;40;20142;-84
2021/05/18 04:21:04;;;;;;;3.38;1.60;;;;;;;12.93;68.21;94175.50;2954575;40;20063;-82
2021/05/18 04:54:29;;;;;;;1.95;1.42;;;;;;;11.86;70.79;94211.69;2960194;40;20071;-84
2021/05/18 04:59:12;;;;;;;2.22;1.52;;;;;;;12.03;71.13;94228.13;2955492;40;20387;-68
2021/05/18 05:01:17;;;;;;;2.83;1.45;;;;;;;12.34;69.84;94227.16;2957691;40;20065;-69
2021/05/18 05:09:54;;;;;;;2.17;1.20;;;;;;;12.66;68.27;94241.72;2955556;40;20214;-70
2021/05/18 05:14:24;;;;;;;2.00;1.13;;;;;;;12.76;67.05;94246.69;2957158;40;20063;-71
2021/05/18 05:16:26;;;;;;;1.88;1.20;;;;;;;12.75;67.07;94244.25;2957674;40;20055;-70
2021/05/18 05:18:28;;;;;;;1.42;1.10;;;;;;;12.79;66.72;94250.78;2957857;40;20489;-72
2021/05/18 05:20:30;;;;;;;3.65;1.63;;;;;;;12.76;66.33;94246.69;2957164;40;20161;-70
2021/05/18 05:22:32;;;;;;;2.60;1.17;;;;;;;12.60;66.45;94247.69;2956733;40;20409;-70
2021/05/18 05:24:34;;;;;;;1.50;1.20;;;;;;;12.61;66.57;94249.34;2960435;40;20128;-81
2021/05/18 05:26:37;;;;;;;2.95;1.35;;;;;;;12.34;66.72;94252.59;2955853;40;20062;-85
2021/05/18 05:28:39;;;;;;;2.37;1.30;;;;;;;12.20;67.65;94262.94;2957617;40;20076;-84
2021/05/18 05:30:40;;;;;;;2.88;1.00;;;;;;;12.28;66.18;94257.59;2956447;40;20308;-81
2021/05/18 05:32:42;;;;;;;2.60;1.20;;;;;;;12.43;66.64;94256.75;2958358;40;20453;-81
2021/05/18 05:34:44;;;;;;;3.00;1.00;;;;;;;12.55;66.78;94260.56;2958218;40;20064;-84
2021/05/18 05:36:46;;;;;;;1.85;1.13;;;;;;;12.57;66.62;94261.22;2958508;40;20061;-82
2021/05/18 05:38:49;;;;;;;2.00;1.15;;;;;;;12.76;65.17;94266.91;2959015;40;20057;-84
2021/05/18 05:40:51;;;;;;;1.48;1.10;;;;;;;12.74;64.71;94258.41;2956894;40;20176;-81
2021/05/18 05:42:53;;;;;;;2.10;1.15;;;;;;;12.53;65.40;94257.31;2959694;40;20063;-85
2021/05/18 05:44:54;;;;;;;1.58;0.85;;;;;;;12.73;65.02;94273.34;2959260;40;20052;-86
2021/05/18 05:46:56;;;;;;;1.70;1.00;;;;;;;12.87;64.53;94258.56;2956812;40;20431;-83
2021/05/18 05:48:58;;;;;;;1.73;0.90;;;;;;;13.01;64.54;94265.59;2959892;40;20052;-81
2021/05/18 05:51:00;;;;;;;3.95;1.00;;;;;;;13.02;63.38;94263.78;2959224;40;20189;-83
2021/05/18 05:53:02;;;;;;;3.03;1.00;;;;;;;12.98;63.58;94259.91;2960675;40;20322;-84
2021/05/18 05:55:04;;;;;;;5.25;1.00;;;;;;;13.11;62.88;94266.13;2957619;40;20079;-82
2021/05/18 05:57:06;;;;;;;1.77;1.10;;;;;;;13.29;63.72;94267.56;2959567;40;20317;-81
2021/05/18 05:59:08;;;;;;;6.03;1.38;;;;;;;13.34;63.27;94265.19;2961187;40;20231;-82
2021/05/18 06:01:11;;;;;;;2.50;1.30;;;;;;;13.08;63.85;94265.69;2953545;40;20053;-82
2021/05/18 06:03:13;;;;;;;1.75;1.10;;;;;;;13.13;63.79;94271.19;2960474;40;20229;-82
2021/05/18 06:05:15;;;;;;;1.88;1.23;;;;;;;13.13;63.80;94278.28;2960272;40;20036;-82
2021/05/18 06:07:16;;;;;;;3.33;1.42;;;;;;;13.13;63.87;94281.72;2959338;40;20306;-83
2021/05/18 06:09:19;;;;;;;1.45;1.08;;;;;;;13.15;63.68;94279.72;2961147;40;20206;-83
2021/05/18 06:16:30;;;;;;;1.58;1.13;;;;;;;13.15;63.53;94292.88;2957498;40;20052;-82
2021/05/18 06:29:47;;;;;;;3.65;0.90;;;;;;;13.43;61.71;94282.47;2959892;40;20075;-82
2021/05/18 06:47:46;;;;;;;1.50;0.95;;;;;;;13.89;56.43;94273.38;2959415;40;20065;-82
2021/05/18 06:49:57;;;;;;;2.78;1.30;;;;;;;13.97;55.65;94290.88;2956842;40;20065;-81
2021/05/18 06:51:59;;;;;;;4.10;1.25;;;;;;;14.12;54.94;94288.97;2957088;40;20177;-85
2021/05/18 06:54:00;;;;;;;3.63;1.13;;;;;;;14.20;54.48;94286.22;2953774;40;20068;-81
2021/05/18 06:56:03;;;;;;;5.32;1.42;;;;;;;14.34;54.58;94287.09;2959115;40;20049;-81
2021/05/18 06:58:14;;;;;;;2.75;1.50;;;;;;;14.43;54.93;94293.88;2954464;40;20093;-83
2021/05/18 07:00:20;;;;;;;3.67;1.05;;;;;;;14.57;53.72;94286.91;2960702;40;20334;-82
2021/05/18 07:02:22;;;;;;;3.55;1.42;;;;;;;14.77;54.20;94286.19;2958218;40;20070;-86
2021/05/18 07:04:25;;;;;;;4.00;1.45;;;;;;;14.68;52.97;94301.34;2962336;40;20068;-82
2021/05/18 07:10:31;;;;;;;2.05;0.82;;;;;;;14.27;52.49;94292.34;2959210;40;20057;-71
2021/05/18 07:12:35;;;;;;;3.75;1.25;;;;;;;14.51;53.09;94292.91;2958929;40;20051;-73
2021/05/18 07:14:37;;;;;;;4.35;1.63;;;;;;;14.65;53.46;94286.75;2958327;40;20052;-70
2021/05/18 07:16:39;;;;;;;17.75;4.68;;;;;;;14.81;53.41;94282.16;2958263;40;20052;-70
2021/05/18 07:18:40;;;;;;;19.35;5.60;;;;;;;14.82;53.28;94279.34;2958943;40;20403;-70
2021/05/18 07:20:42;;;;;;;5.47;1.85;;;;;;;14.64;52.96;94303.56;2959083;40;20055;-71
2021/05/18 07:22:44;;;;;;;9.27;2.40;;;;;;;14.44;52.98;94290.22;2959418;40;20073;-72
2021/05/18 07:24:46;;;;;;;6.47;1.85;;;;;;;14.29;54.04;94295.59;2958338;40;20368;-71
2021/05/18 07:26:49;;;;;;;5.20;1.80;;;;;;;14.28;52.72;94299.25;2950153;40;20089;-69
2021/05/18 07:28:51;;;;;;;1.80;0.90;;;;;;;14.40;51.58;94304.78;2958504;40;20068;-71
2021/05/18 07:30:53;;;;;;;1.90;0.80;;;;;;;14.66;51.90;94296.25;2958396;40;20141;-70
2021/05/18 07:32:55;;;;;;;2.88;0.75;;;;;;;14.84;51.30;94301.06;2958062;40;20056;-71
2021/05/18 07:34:56;;;;;;;1.38;0.90;;;;;;;14.89;51.63;94309.19;2953762;40;20324;-71
2021/05/18 07:36:58;;;;;;;1.17;0.65;;;;;;;14.97;51.10;94305.59;2956884;40;20072;-70
2021/05/18 07:39:00;;;;;;;5.07;1.33;;;;;;;14.90;51.64;94302.88;2958410;40;20080;-69
2021/05/18 07:41:03;;;;;;;4.10;1.00;;;;;;;14.33;51.93;94323.19;2959799;40;20161;-70
2021/05/18 07:43:05;;;;;;;1.63;0.77;;;;;;;14.46;50.92;94319.84;2950976;40;20184;-72
2021/05/18 07:45:07;;;;;;;1.52;0.70;;;;;;;14.41;51.36;94324.03;2956209;40;20045;-71
2021/05/18 07:47:12;;;;;;;4.22;0.90;;;;;;;13.87;52.82;94322.78;2956902;40;20425;-70
2021/05/18 07:49:30;;;;;;;5.78;1.85;;;;;;;14.07;53.91;94320.34;2956956;40;20055;-71
2021/05/18 08:05:23;;;;;;;4.25;1.80;;;;;;;14.12;55.26;94323.22;2957515;40;20055;-71
2021/05/18 08:07:27;;;;;;;4.85;2.22;;;;;;;14.31;54.97;94327.03;2957701;40;20047;-70
2021/05/18 08:09:30;;;;;;;2.95;0.85;;;;;;;14.41;54.67;94326.69;2957578;40;20444;-72
2021/05/18 08:11:32;;;;;;;6.28;2.30;;;;;;;14.37;55.79;94331.53;2959135;40;20475;-71
2021/05/18 08:13:36;;;;;;;2.33;1.20;;;;;;;14.39;54.70;94331.31;2957965;40;20274;-71
2021/05/18 08:15:51;;;;;;;2.88;1.55;;;;;;;14.12;54.62;94325.84;2956668;40;20060;-70
2021/05/18 08:22:41;;;;;;;2.63;1.20;;;;;;;14.72;52.77;94326.31;2957844;40;20458;-70
2021/05/18 08:49:18;;;;;;;1.45;1.00;;;;;;;14.91;50.39;94309.81;2960527;40;20065;-85
2021/05/18 10:18:31;;;;;;;4.68;1.40;;;;;;;16.53;47.23;94312.59;2956438;40;20333;-83
2021/05/18 10:36:12;;;;;;;1.60;0.98;;;;;;;16.20;46.42;94320.53;2963369;40;20084;-83
2021/05/18 10:38:27;;;;;;;5.18;1.25;;;;;;;16.30;45.85;94324.41;2960024;40;20145;-84
2021/05/18 10:40:34;;;;;;;3.65;0.90;;;;;;;16.50;44.46;94339.47;2958776;40;20041;-86
2021/05/18 10:43:06;;;;;;;2.35;0.90;;;;;;;16.82;44.72;94332.53;2966929;40;20069;-84
2021/05/18 10:45:08;;;;;;;2.70;1.17;;;;;;;16.65;43.75;94333.94;2958369;40;20089;-81
2021/05/18 10:47:10;;;;;;;1.70;1.10;;;;;;;16.02;44.08;94345.72;2952534;40;20089;-83
2021/05/18 10:49:13;;;;;;;8.85;1.20;;;;;;;16.20;44.19;94341.66;2959147;40;20057;-82
2021/05/18 10:51:27;;;;;;;1.70;0.90;;;;;;;16.28;43.96;94341.47;2958041;40;20425;-71
2021/05/18 10:53:29;;;;;;;3.67;0.68;;;;;;;16.47;43.43;94340.66;2958359;40;20361;-69
2021/05/18 10:55:31;;;;;;;2.33;0.73;;;;;;;16.69;43.60;94343.09;2957981;40;20049;-71
2021/05/18 10:57:33;;;;;;;1.98;0.70;;;;;;;16.52;44.82;94340.03;2948286;40;20331;-68
2021/05/18 10:59:48;;;;;;;1.48;0.95;;;;;;;16.31;44.79;94326.03;2951655;40;20146;-70
2021/05/18 11:02:28;;;;;;;7.32;0.80;;;;;;;16.85;44.71;94337.41;2957374;40;20076;-70
2021/05/18 11:04:33;;;;;;;3.13;0.80;;;;;;;17.17;44.24;94345.47;2957004;40;20148;-70
2021/05/18 11:06:59;;;;;;;2.15;0.68;;;;;;;17.46;43.78;94345.97;2956089;40;20276;-68
2021/05/18 11:09:01;;;;;;;4.63;1.10;;;;;;;17.56;43.54;94341.06;2954074;40;20082;-73
2021/05/18 11:11:04;;;;;;;1.35;0.60;;;;;;;17.58;43.82;94334.53;2957870;40;20370;-76
2021/05/18 11:13:09;;;;;;;1.52;0.63;;;;;;;17.72;41.46;94326.50;2954512;40;20072;-72
2021/05/18 11:15:16;;;;;;;1.55;0.82;;;;;;;17.66;42.19;94330.81;2956819;40;20145;-73
2021/05/18 11:17:19;;;;;;;6.20;0.65;;;;;;;17.63;41.74;94333.06;2953831;40;20053;-73
2021/05/18 11:19:21;;;;;;;0.65;0.40;;;;;;;17.84;41.71;94321.38;2958006;40;20156;-72
2021/05/18 11:21:23;;;;;;;1.10;0.50;;;;;;;17.67;41.19;94321.84;2956537;40;20329;-69
2021/05/18 11:23:30;;;;;;;2.40;0.60;;;;;;;17.31;40.71;94333.00;2956853;40;20187;-71
2021/05/18 11:25:32;;;;;;;0.75;0.40;;;;;;;17.29;40.74;94327.91;2957946;40;20486;-71
2021/05/18 11:27:35;;;;;;;2.20;0.90;;;;;;;16.70;40.90;94324.38;2957571;40;20232;-70
2021/05/18 11:29:41;;;;;;;4.10;1.43;;;;;;;16.67;41.25;94345.13;2958293;40;20154;-70
2021/05/18 11:31:43;;;;;;;2.92;0.93;;;;;;;16.44;42.23;94327.88;2956748;40;20079;-70
2021/05/18 11:33:47;;;;;;;4.38;1.13;;;;;;;16.58;42.33;94348.00;2956753;40;20068;-72
2021/05/18 11:36:19;;;;;;;3.40;1.00;;;;;;;16.53;42.23;94317.91;2951425;40;20049;-70
2021/05/18 11:38:27;;;;;;;3.53;1.25;;;;;;;16.67;43.25;94329.25;2957405;40;20430;-70
2021/05/18 11:40:29;;;;;;;1.80;0.88;;;;;;;16.92;42.71;94337.41;2956973;40;20045;-70
2021/05/18 11:42:30;;;;;;;4.90;1.17;;;;;;;16.69;42.98;94343.94;2949843;40;20139;-69
2021/05/18 11:44:36;;;;;;;3.13;0.68;;;;;;;16.86;42.53;94317.06;2956656;40;20045;-71
2021/05/18 11:46:43;;;;;;;3.70;1.20;;;;;;;16.98;42.64;94326.78;2953316;40;20475;-72
2021/05/18 11:49:00;;;;;;;1.75;0.63;;;;;;;16.97;42.13;94314.59;2950087;40;20318;-71
2021/05/18 11:51:05;;;;;;;1.80;0.75;;;;;;;16.98;41.83;94326.78;2958906;40;20120;-72
2021/05/18 11:53:07;;;;;;;0.95;0.60;;;;;;;17.01;42.37;94330.03;2959008;40;20073;-71
2021/05/18 11:55:20;;;;;;;3.13;0.90;;;;;;;17.14;41.97;94325.53;2958345;40;20057;-70
2021/05/18 11:57:22;;;;;;;3.80;0.60;;;;;;;17.06;39.11;94327.59;2958877;40;20060;-70
2021/05/18 11:59:25;;;;;;;0.57;0.40;;;;;;;17.20;38.29;94313.28;2957506;40;20053;-71
2021/05/18 12:01:27;;;;;;;3.63;0.60;;;;;;;17.12;38.08;94337.34;2956262;40;20056;-70
2021/05/18 12:03:29;;;;;;;0.73;0.40;;;;;;;17.23;37.81;94326.13;2958854;40;20146;-70
2021/05/18 12:05:31;;;;;;;1.20;0.50;;;;;;;17.33;38.33;94325.66;2957842;40;20041;-70
2021/05/18 12:07:33;;;;;;;1.08;0.47;;;;;;;17.26;38.14;94331.00;2957565;40;20048;-70
2021/05/18 12:09:38;;;;;;;1.60;0.65;;;;;;;17.19;37.92;94316.97;2959242;40;20071;-73
2021/05/18 12:11:40;;;;;;;1.80;0.52;;;;;;;17.25;37.50;94334.66;2957640;40;20052;-70
2021/05/18 12:13:43;;;;;;;1.38;0.50;;;;;;;17.38;37.11;94325.88;2957703;40;20045;-71
2021/05/18 12:16:08;;;;;;;0.68;0.47;;;;;;;17.75;37.22;94326.91;2958089;40;20056;-74
2021/05/18 12:18:10;;;;;;;2.08;0.47;;;;;;;17.81;35.70;94318.09;2958455;40;20052;-73
2021/05/18 12:20:15;;;;;;;2.30;0.35;;;;;;;18.04;35.21;94300.06;2958188;40;20045;-73
2021/05/18 12:22:17;;;;;;;0.85;0.35;;;;;;;17.98;34.24;94315.78;2957303;40;20105;-70
2021/05/18 12:24:25;;;;;;;2.53;0.45;;;;;;;18.01;34.82;94303.94;2959065;40;20061;-71
2021/05/18 12:26:27;;;;;;;2.70;0.50;;;;;;;18.14;34.76;94298.53;2956851;40;20374;-70
2021/05/18 12:28:29;;;;;;;3.60;0.70;;;;;;;18.21;34.17;94288.69;2958940;40;20060;-71
2021/05/18 12:30:42;;;;;;;1.88;0.52;;;;;;;18.29;33.50;94295.56;2949473;40;20050;-73
2021/05/18 12:32:50;;;;;;;0.67;0.37;;;;;;;18.05;33.18;94306.97;2952619;40;20072;-71
2021/05/18 12:35:02;;;;;;;0.70;0.22;;;;;;;18.19;33.32;94298.69;2958687;40;20064;-72
2021/05/18 12:37:04;;;;;;;1.00;0.45;;;;;;;18.33;33.92;94303.91;2959135;40;20060;-73
2021/05/18 12:39:11;;;;;;;1.85;0.50;;;;;;;18.35;33.91;94294.72;2956870;40;20052;-72
2021/05/18 12:41:14;;;;;;;0.57;0.50;;;;;;;18.34;33.82;94290.41;2958535;40;20304;-71
2021/05/18 12:43:21;;;;;;;3.25;0.68;;;;;;;18.50;33.82;94289.06;2955384;40;20057;-70
2021/05/18 12:45:26;;;;;;;1.65;0.28;;;;;;;18.33;32.72;94303.91;2956347;40;20056;-71
2021/05/18 12:47:29;;;;;;;0.25;0.22;;;;;;;18.39;32.84;94305.69;2956684;40;20097;-70
2021/05/18 12:49:34;;;;;;;0.32;0.20;;;;;;;18.21;33.10;94299.28;2958989;40;20091;-72
2021/05/18 12:51:36;;;;;;;2.67;0.47;;;;;;;18.23;33.52;94317.66;2958236;40;20127;-71
2021/05/18 12:53:38;;;;;;;0.45;0.22;;;;;;;18.04;32.86;94316.75;2957879;40;20069;-71
2021/05/18 12:55:42;;;;;;;0.63;0.22;;;;;;;17.79;33.46;94306.91;2958463;40;20056;-70
2021/05/18 12:58:11;;;;;;;1.25;0.40;;;;;;;17.87;34.10;94310.34;2957173;40;20418;-69
2021/05/18 13:00:14;;;;;;;0.52;0.40;;;;;;;17.94;34.48;94304.00;2953820;40;20142;-71
2021/05/18 13:02:32;;;;;;;2.80;0.50;;;;;;;18.09;34.46;94309.00;2956724;40;20077;-72
2021/05/18 13:04:38;;;;;;;0.85;0.50;;;;;;;18.19;34.94;94305.84;2958320;40;20307;-70
2021/05/18 13:06:46;;;;;;;1.25;0.55;;;;;;;18.35;34.08;94297.38;2958832;40;20112;-71
2021/05/18 13:08:48;;;;;;;1.73;0.40;;;;;;;18.27;34.46;94308.22;2949542;40;20097;-74
2021/05/18 13:13:06;;;;;;;1.48;0.80;;;;;;;18.29;36.03;94300.88;2958180;40;20060;-70
2021/05/18 13:15:13;;;;;;;1.85;0.60;;;;;;;18.59;35.87;94306.34;2957316;40;20056;-69
2021/05/18 13:17:15;;;;;;;2.15;0.80;;;;;;;18.63;36.14;94296.91;2954464;40;20413;-71
2021/05/18 13:19:18;;;;;;;1.63;0.68;;;;;;;18.65;35.98;94315.28;2958419;40;20279;-70
2021/05/18 13:21:23;;;;;;;2.97;1.45;;;;;;;18.23;37.18;94299.09;2957700;40;20134;-72
2021/05/18 13:27:54;;;;;;;0.75;0.35;;;;;;;18.56;32.98;94298.81;2957751;40;20374;-70
2021/05/18 13:29:56;;;;;;;0.20;0.20;;;;;;;18.44;33.25;94299.75;2957699;40;20145;-71
2021/05/18 13:31:57;;;;;;;8.00;1.02;;;;;;;18.05;34.87;94320.22;2950752;40;20138;-73
2021/05/18 13:34:17;;;;;;;2.92;0.60;;;;;;;17.63;35.91;94307.41;2952670;40;20372;-71
2021/05/18 13:36:19;;;;;;;1.52;0.60;;;;;;;17.51;36.91;94295.84;2957826;40;20128;-71
2021/05/18 13:38:21;;;;;;;1.50;0.73;;;;;;;17.73;37.01;94291.06;2958503;40;20052;-70
2021/05/18 13:40:25;;;;;;;2.25;0.73;;;;;;;17.91;37.29;94320.31;2957746;40;20640;-71
2021/05/18 13:42:26;;;;;;;1.35;0.80;;;;;;;18.01;36.00;94302.09;2957772;40;20060;-72
2021/05/18 13:44:29;;;;;;;1.17;0.52;;;;;;;18.06;36.52;94295.34;2957332;40;20266;-72
2021/05/18 13:46:32;;;;;;;1.77;1.20;;;;;;;17.92;36.67;94305.25;2957790;40;20061;-71
2021/05/18 13:48:44;;;;;;;1.58;0.60;;;;;;;17.94;36.05;94306.66;2949927;40;20150;-70
2021/05/18 13:50:46;;;;;;;1.90;0.90;;;;;;;17.92;35.60;94307.88;2957676;40;20064;-72
2021/05/18 13:52:48;;;;;;;1.65;0.60;;;;;;;17.97;35.68;94303.56;2950415;40;20064;-69
2021/05/18 13:54:51;;;;;;;1.23;0.70;;;;;;;18.09;36.23;94305.50;2950125;40;20461;-70
2021/05/18 13:56:53;;;;;;;3.53;0.80;;;;;;;17.99;35.96;94322.69;2949898;40;20052;-70
2021/05/18 13:58:54;;;;;;;1.30;0.90;;;;;;;17.79;36.46;94317.50;2954844;40;20068;-70
2021/05/18 14:00:56;;;;;;;3.10;0.80;;;;;;;17.95;36.46;94310.91;2951614;40;20680;-70
2021/05/18 14:02:58;;;;;;;3.88;0.50;;;;;;;18.19;35.89;94300.53;2956520;40;20050;-70
2021/05/18 14:05:02;;;;;;;3.20;0.73;;;;;;;18.03;36.05;94314.34;2957582;40;20115;-69
2021/05/18 14:07:39;;;;;;;3.03;0.80;;;;;;;17.75;36.07;94305.72;2958272;40;20045;-83
2021/05/18 14:09:41;;;;;;;1.90;1.00;;;;;;;17.65;36.49;94315.13;2958894;40;20041;-84
2021/05/18 14:11:43;;;;;;;4.25;0.90;;;;;;;17.94;36.55;94309.28;2959752;40;20149;-82
2021/05/18 14:13:47;;;;;;;2.00;0.90;;;;;;;18.28;36.24;94312.50;2959620;40;20061;-82
2021/05/18 14:15:49;;;;;;;1.80;0.60;;;;;;;18.54;35.15;94318.63;2958220;40;20153;-86
2021/05/18 14:17:50;;;;;;;0.73;0.40;;;;;;;18.73;34.54;94307.00;2958394;40;20053;-82
2021/05/18 14:19:52;;;;;;;0.93;0.47;;;;;;;19.08;34.29;94305.66;2959986;40;20148;-84
2021/05/18 14:21:54;;;;;;;1.17;0.57;;;;;;;19.30;33.84;94320.13;2958755;40;20368;-83
2021/05/18 14:24:09;;;;;;;2.58;0.50;;;;;;;19.40;33.29;94312.47;2960032;40;20049;-86
2021/05/18 14:26:11;;;;;;;1.65;0.80;;;;;;;19.48;33.46;94313.97;2962166;40;20064;-81
2021/05/18 14:28:12;;;;;;;2.40;0.47;;;;;;;19.84;32.93;94312.31;2960357;40;20321;-81
2021/05/18 14:30:15;;;;;;;1.30;0.50;;;;;;;19.80;33.35;94311.97;2954422;40;20206;-84
2021/05/18 14:32:17;;;;;;;2.05;0.50;;;;;;;20.05;32.97;94316.34;2960627;40;20147;-82